createdAt,value
2022-09-25T00:01:31.817Z,8.48
2022-09-25T00:04:00.115Z,10.10
2022-09-25T00:06:31.296Z,9.65
2022-09-25T00:09:01.651Z,9.15
2022-09-25T00:11:33.305Z,9.25
2022-09-25T00:14:02.478Z,8.57
2022-09-25T00:16:33.312Z,8.63
2022-09-25T00:19:19.442Z,8.70
2022-09-25T00:21:53.198Z,7.70
2022-09-25T00:24:22.679Z,8.35
2022-09-25T00:26:51.202Z,8.50
2022-09-25T00:29:21.949Z,8.18
2022-09-25T00:31:50.211Z,8.73
2022-09-25T00:34:18.695Z,7.85
2022-09-25T00:36:48.616Z,8.63
2022-09-25T00:39:16.657Z,8.38
2022-09-25T00:41:45.137Z,8.02
2022-09-25T00:44:56.665Z,9.02
2022-09-25T00:47:46.569Z,10.40
2022-09-25T00:50:35.005Z,9.95
2022-09-25T00:53:09.375Z,10.43
2022-09-25T00:55:39.263Z,10.15
2022-09-25T00:58:08.378Z,10.05
2022-09-25T01:00:37.197Z,10.98
2022-09-25T01:03:07.943Z,10.15
2022-09-25T01:05:39.390Z,10.65
2022-09-25T01:08:12.536Z,11.18
2022-09-25T01:10:42.485Z,12.00
2022-09-25T01:13:11.589Z,11.25
2022-09-25T01:15:47.018Z,10.90
2022-09-25T01:18:29.091Z,10.48
2022-09-25T01:21:09.404Z,11.52
2022-09-25T01:24:29.815Z,10.75
2022-09-25T01:27:21.447Z,11.93
2022-09-25T01:29:58.068Z,12.35
2022-09-25T01:32:34.491Z,12.80
2022-09-25T01:35:06.781Z,11.68
2022-09-25T01:37:42.079Z,11.73
2022-09-25T01:40:17.326Z,11.75
2022-09-25T01:42:50.356Z,11.70
2022-09-25T01:45:25.622Z,11.27
2022-09-25T01:47:54.901Z,11.32
2022-09-25T01:50:27.671Z,12.48
2022-09-25T01:53:01.757Z,12.30
2022-09-25T01:55:36.503Z,11.30
2022-09-25T01:58:10.433Z,11.32
2022-09-25T02:00:45.520Z,10.73
2022-09-25T02:03:19.176Z,10.07
2022-09-25T02:05:52.631Z,10.30
2022-09-25T02:08:24.806Z,10.45
2022-09-25T02:10:57.430Z,9.63
2022-09-25T02:13:29.244Z,10.95
2022-09-25T02:16:03.741Z,11.80
2022-09-25T02:18:50.385Z,11.10
2022-09-25T02:21:28.476Z,11.23
2022-09-25T02:24:04.450Z,11.50
2022-09-25T02:26:35.568Z,10.93
2022-09-25T02:29:05.576Z,11.57
2022-09-25T02:31:39.474Z,10.98
2022-09-25T02:34:13.840Z,11.90
2022-09-25T02:36:45.175Z,12.15
2022-09-25T02:39:15.581Z,11.95
2022-09-25T02:41:54.665Z,12.60
2022-09-25T02:44:34.643Z,10.63
2022-09-25T02:47:15.831Z,10.73
2022-09-25T02:49:52.204Z,10.30
2022-09-25T02:52:28.723Z,11.75
2022-09-25T02:55:04.402Z,11.52
2022-09-25T02:57:43.855Z,11.07
2022-09-25T03:00:13.417Z,12.27
2022-09-25T03:02:51.367Z,12.18
2022-09-25T03:05:23.830Z,11.73
2022-09-25T03:08:11.303Z,12.35
2022-09-25T03:10:39.739Z,12.52
2022-09-25T03:13:16.169Z,11.85
2022-09-25T03:15:48.032Z,12.57
2022-09-25T03:18:18.579Z,11.48
2022-09-25T03:20:47.157Z,12.80
2022-09-25T03:23:15.520Z,12.93
2022-09-25T03:25:49.741Z,12.68
2022-09-25T03:28:18.554Z,13.00
2022-09-25T03:30:58.401Z,12.45
2022-09-25T03:33:29.424Z,13.05
2022-09-25T03:36:10.057Z,14.10
2022-09-25T03:38:39.554Z,13.13
2022-09-25T03:41:09.954Z,13.73
2022-09-25T03:43:39.432Z,14.15
2022-09-25T03:46:09.182Z,12.88
2022-09-25T03:48:39.922Z,12.95
2022-09-25T03:51:09.450Z,13.27
2022-09-25T03:53:38.331Z,13.50
2022-09-25T03:56:10.008Z,12.73
2022-09-25T03:58:38.146Z,13.48
2022-09-25T04:01:07.636Z,12.95
2022-09-25T04:03:36.131Z,13.95
2022-09-25T04:06:07.522Z,14.70
2022-09-25T04:08:37.353Z,13.68
2022-09-25T04:11:05.884Z,14.70
2022-09-25T04:13:36.705Z,13.32
2022-09-25T04:16:08.658Z,14.10
2022-09-25T04:18:37.618Z,13.07
2022-09-25T04:21:09.382Z,15.13
2022-09-25T04:23:39.066Z,14.77
2022-09-25T04:26:08.836Z,14.00
2022-09-25T04:28:37.117Z,13.65
2022-09-25T04:31:05.823Z,13.60
2022-09-25T04:33:48.174Z,14.98
2022-09-25T04:36:19.173Z,13.93
2022-09-25T04:38:48.056Z,15.25
2022-09-25T04:41:18.094Z,15.27
2022-09-25T04:43:46.178Z,14.43
2022-09-25T04:46:21.529Z,15.10
2022-09-25T04:48:50.932Z,14.00
2022-09-25T04:51:20.937Z,14.95
2022-09-25T04:53:49.453Z,15.20
2022-09-25T04:56:17.923Z,13.27
2022-09-25T04:58:47.964Z,14.40
2022-09-25T05:01:18.156Z,13.10
2022-09-25T05:03:50.192Z,13.70
2022-09-25T05:06:20.302Z,13.65
2022-09-25T05:08:50.576Z,13.88
2022-09-25T05:11:18.656Z,14.02
2022-09-25T05:13:50.065Z,14.40
2022-09-25T05:16:18.733Z,13.90
2022-09-25T05:18:47.353Z,15.70
2022-09-25T05:21:15.375Z,15.02
2022-09-25T05:23:44.838Z,14.13
2022-09-25T05:26:13.601Z,14.93
2022-09-25T05:28:41.651Z,13.57
2022-09-25T05:31:11.211Z,15.68
2022-09-25T05:33:39.350Z,14.13
2022-09-25T05:36:09.253Z,14.05
2022-09-25T05:38:38.949Z,15.60
2022-09-25T05:41:10.723Z,14.88
2022-09-25T05:43:41.285Z,16.45
2022-09-25T05:46:10.181Z,15.77
2022-09-25T05:48:39.366Z,15.02
2022-09-25T05:51:08.591Z,16.58
2022-09-25T05:53:36.767Z,16.05
2022-09-25T05:56:06.296Z,16.13
2022-09-25T05:58:37.689Z,15.68
2022-09-25T06:01:07.450Z,15.73
2022-09-25T06:03:36.593Z,16.60
2022-09-25T06:06:05.701Z,15.88
2022-09-25T06:08:35.586Z,15.48
2022-09-25T06:11:03.935Z,16.33
2022-09-25T06:13:34.926Z,16.05
2022-09-25T06:16:06.571Z,15.07
2022-09-25T06:18:34.648Z,15.40
2022-09-25T06:21:04.782Z,16.88
2022-09-25T06:23:33.594Z,16.67
2022-09-25T06:26:02.960Z,16.27
2022-09-25T06:28:31.632Z,16.83
2022-09-25T06:31:02.163Z,15.88
2022-09-25T06:33:32.261Z,16.10
2022-09-25T06:36:00.742Z,15.93
2022-09-25T06:38:29.838Z,17.33
2022-09-25T06:41:00.792Z,17.58
2022-09-25T06:43:30.392Z,17.60
2022-09-25T06:46:03.411Z,16.92
2022-09-25T06:48:33.768Z,17.20
2022-09-25T06:51:02.570Z,16.92
2022-09-25T06:53:31.131Z,18.65
2022-09-25T06:56:00.161Z,18.15
2022-09-25T06:58:30.964Z,18.92
2022-09-25T07:00:59.091Z,17.70
2022-09-25T07:03:44.865Z,18.08
2022-09-25T07:06:17.102Z,16.67
2022-09-25T07:08:48.130Z,18.65
2022-09-25T07:11:18.248Z,17.33
2022-09-25T07:13:46.325Z,17.55
2022-09-25T07:16:16.365Z,18.35
2022-09-25T07:18:45.192Z,19.02
2022-09-25T07:21:16.599Z,17.00
2022-09-25T07:23:45.840Z,16.65
2022-09-25T07:26:16.435Z,18.60
2022-09-25T07:28:45.689Z,17.50
2022-09-25T07:31:16.689Z,17.15
2022-09-25T07:33:45.063Z,16.05
2022-09-25T07:36:16.014Z,17.30
2022-09-25T07:38:46.524Z,18.23
2022-09-25T07:41:14.965Z,17.08
2022-09-25T07:43:43.724Z,17.58
2022-09-25T07:46:13.113Z,17.10
2022-09-25T07:48:41.372Z,18.83
2022-09-25T07:51:12.363Z,19.42
2022-09-25T07:53:43.163Z,17.15
2022-09-25T07:56:12.106Z,16.52
2022-09-25T07:58:41.284Z,18.10
2022-09-25T08:01:12.711Z,18.30
2022-09-25T08:03:41.546Z,17.52
2022-09-25T08:06:12.355Z,17.83
2022-09-25T08:08:42.793Z,15.93
2022-09-25T08:11:13.527Z,16.73
2022-09-25T08:13:42.471Z,16.75
2022-09-25T08:16:14.492Z,16.65
2022-09-25T08:18:44.012Z,15.68
2022-09-25T08:21:14.693Z,16.00
2022-09-25T08:23:48.185Z,16.35
2022-09-25T08:26:17.402Z,16.30
2022-09-25T08:28:47.226Z,15.60
2022-09-25T08:31:15.536Z,16.17
2022-09-25T08:33:46.058Z,14.75
2022-09-25T08:36:15.043Z,13.60
2022-09-25T08:38:45.260Z,13.27
2022-09-25T08:41:18.306Z,12.13
2022-09-25T08:43:55.864Z,11.93
2022-09-25T08:46:45.555Z,11.57
2022-09-25T08:49:15.293Z,11.82
2022-09-25T08:51:46.345Z,12.27
2022-09-25T08:54:20.465Z,10.13
2022-09-25T08:56:51.660Z,10.05
2022-09-25T08:59:26.899Z,10.18
2022-09-25T09:01:58.582Z,10.07
2022-09-25T09:04:32.474Z,9.73
2022-09-25T09:07:26.417Z,9.55
2022-09-25T09:10:03.530Z,9.52
2022-09-25T09:12:38.032Z,9.43
2022-09-25T09:15:24.227Z,10.82
2022-09-25T09:17:52.651Z,10.00
2022-09-25T09:20:28.216Z,10.13
2022-09-25T09:22:58.629Z,9.32
2022-09-25T09:25:32.562Z,9.25
2022-09-25T09:28:25.627Z,10.65
2022-09-25T09:31:02.046Z,9.80
2022-09-25T09:33:44.706Z,9.65
2022-09-25T09:36:19.921Z,9.25
2022-09-25T09:38:55.110Z,8.63
2022-09-25T09:41:37.725Z,9.80
2022-09-25T09:44:19.701Z,9.57
2022-09-25T09:46:56.998Z,9.38
2022-09-25T09:49:33.216Z,9.05
2022-09-25T09:52:08.545Z,8.77
2022-09-25T09:54:43.409Z,9.15
2022-09-25T09:57:19.213Z,8.80
2022-09-25T09:59:51.208Z,8.60
2022-09-25T10:02:32.223Z,8.73
2022-09-25T10:05:03.802Z,9.38
2022-09-25T10:07:35.439Z,8.82
2022-09-25T10:10:05.836Z,7.50
2022-09-25T10:12:37.248Z,8.05
2022-09-25T10:15:25.919Z,7.65
2022-09-25T10:17:55.525Z,7.85
2022-09-25T10:20:25.339Z,7.22
2022-09-25T10:22:56.679Z,7.72
2022-09-25T10:25:38.857Z,7.13
2022-09-25T10:28:27.770Z,8.23
2022-09-25T10:30:56.974Z,7.05
2022-09-25T10:33:26.585Z,7.45
2022-09-25T10:35:56.288Z,7.20
2022-09-25T10:38:33.542Z,6.22
2022-09-25T10:41:05.119Z,6.78
2022-09-25T10:43:35.080Z,6.82
2022-09-25T10:46:08.812Z,6.13
2022-09-25T10:48:56.006Z,6.20
2022-09-25T10:51:28.786Z,6.22
2022-09-25T10:54:13.466Z,6.20
2022-09-25T10:56:42.794Z,6.43
2022-09-25T10:59:18.993Z,5.75
2022-09-25T11:01:50.549Z,6.45
2022-09-25T11:04:24.697Z,6.03
2022-09-25T11:06:55.315Z,5.70
2022-09-25T11:09:25.502Z,5.35
2022-09-25T11:11:55.932Z,5.40
2022-09-25T11:14:33.162Z,5.22
2022-09-25T11:17:06.298Z,5.43
2022-09-25T11:19:36.818Z,6.05
2022-09-25T11:22:17.563Z,6.90
2022-09-25T11:24:54.835Z,8.25
2022-09-25T11:27:33.813Z,8.63
2022-09-25T11:30:09.373Z,9.52
2022-09-25T11:32:51.675Z,9.77
2022-09-25T11:35:33.535Z,9.55
2022-09-25T11:38:14.245Z,9.23
2022-09-25T11:41:11.761Z,9.63
2022-09-25T11:43:55.582Z,10.60
2022-09-25T11:46:37.003Z,10.13
2022-09-25T11:49:16.133Z,11.07
2022-09-25T11:52:16.450Z,9.43
2022-09-25T11:54:59.863Z,10.23
2022-09-25T11:57:45.655Z,9.07
2022-09-25T12:00:20.233Z,9.23
2022-09-25T12:03:07.449Z,9.52
2022-09-25T12:05:52.771Z,8.90
2022-09-25T12:08:33.109Z,9.52
2022-09-25T12:11:11.836Z,8.38
2022-09-25T12:16:41.145Z,9.32
2022-09-25T12:19:23.999Z,9.57
2022-09-25T12:21:59.752Z,9.93
2022-09-25T12:24:40.951Z,9.80
2022-09-25T12:27:15.993Z,9.95
2022-09-25T12:29:57.542Z,9.70
2022-09-25T12:32:45.104Z,9.30
2022-09-25T12:35:27.020Z,8.57
2022-09-25T12:38:02.828Z,8.27
2022-09-25T12:40:38.338Z,9.02
2022-09-25T12:43:11.776Z,8.80
2022-09-25T12:45:44.667Z,9.07
2022-09-25T12:48:16.924Z,8.50
2022-09-25T12:50:52.544Z,8.40
2022-09-25T12:53:28.956Z,7.57
2022-09-25T12:56:04.287Z,8.07
2022-09-25T12:58:43.878Z,7.72
2022-09-25T13:01:18.367Z,9.93
2022-09-25T13:03:53.008Z,9.30
2022-09-25T13:06:31.202Z,10.43
2022-09-25T13:09:08.549Z,9.57
2022-09-25T13:11:45.523Z,9.88
2022-09-25T13:14:23.606Z,9.23
2022-09-25T13:16:51.929Z,12.25
2022-09-25T13:19:28.105Z,11.82
2022-09-25T13:22:08.819Z,9.90
2022-09-25T13:24:45.765Z,9.45
2022-09-25T13:27:20.156Z,12.68
2022-09-25T13:29:55.730Z,15.30
2022-09-25T13:32:29.087Z,15.73
2022-09-25T13:35:01.876Z,11.32
2022-09-25T13:37:34.473Z,8.50
2022-09-25T13:40:31.851Z,7.75
2022-09-25T13:43:19.662Z,7.97
2022-09-25T13:45:49.016Z,6.70
2022-09-25T13:48:36.639Z,6.75
2022-09-25T13:51:35.668Z,6.57
2022-09-25T13:54:25.145Z,6.22
2022-09-25T13:56:55.718Z,5.93
2022-09-25T13:59:38.754Z,5.90
2022-09-25T14:02:43.775Z,6.22
2022-09-25T14:05:22.039Z,6.05
2022-09-25T14:07:54.909Z,6.45
2022-09-25T14:10:29.019Z,6.45
2022-09-25T14:12:57.553Z,6.90
2022-09-25T14:15:30.617Z,6.18
2022-09-25T14:18:01.322Z,6.25
2022-09-25T14:20:35.965Z,5.97
2022-09-25T14:23:07.728Z,6.40
2022-09-25T14:25:41.022Z,6.07
2022-09-25T14:28:21.123Z,5.90
2022-09-25T14:31:09.479Z,6.43
2022-09-25T14:33:58.029Z,5.45
2022-09-25T14:36:35.712Z,5.03
2022-09-25T14:39:19.954Z,5.18
2022-09-25T14:42:04.843Z,4.93
2022-09-25T14:44:52.567Z,5.22
2022-09-25T14:47:21.854Z,4.50
2022-09-25T14:49:54.824Z,4.68
2022-09-25T14:52:26.335Z,4.50
2022-09-25T14:55:00.644Z,5.55
2022-09-25T14:57:33.621Z,4.80
2022-09-25T15:00:04.678Z,6.28
2022-09-25T15:02:35.660Z,5.00
2022-09-25T15:05:19.895Z,6.70
2022-09-25T15:07:48.407Z,6.75
2022-09-25T15:10:33.265Z,6.18
2022-09-25T15:13:14.792Z,6.97
2022-09-25T15:16:04.743Z,5.50
2022-09-25T15:18:33.198Z,26.88
2022-09-25T15:21:02.096Z,35.05
2022-09-25T15:23:34.827Z,27.00
2022-09-25T15:26:03.695Z,15.43
2022-09-25T15:28:41.496Z,15.45
2022-09-25T15:31:09.840Z,9.52
2022-09-25T15:33:39.518Z,6.65
2022-09-25T15:36:17.318Z,5.70
2022-09-25T15:38:52.650Z,5.55
2022-09-25T15:41:24.030Z,4.55
2022-09-25T15:44:07.681Z,4.70
2022-09-25T15:46:39.581Z,4.72
2022-09-25T15:49:07.992Z,4.70
2022-09-25T15:51:38.255Z,4.90
2022-09-25T15:54:28.971Z,4.32
2022-09-25T15:56:58.743Z,3.80
2022-09-25T15:59:31.656Z,4.03
2022-09-25T16:02:18.495Z,3.00
2022-09-25T16:04:53.123Z,3.10
2022-09-25T16:07:24.210Z,3.20
2022-09-25T16:09:53.683Z,2.83
2022-09-25T16:12:23.868Z,2.75
2022-09-25T16:14:55.549Z,2.80
2022-09-25T16:17:27.338Z,4.25
2022-09-25T16:20:08.707Z,3.92
2022-09-25T16:22:47.489Z,3.75
2022-09-25T16:25:24.709Z,3.17
2022-09-25T16:27:54.886Z,2.58
2022-09-25T16:30:25.152Z,2.67
2022-09-25T16:32:55.616Z,2.60
2022-09-25T16:35:57.588Z,2.42
2022-09-25T16:38:29.270Z,2.88
2022-09-25T16:41:05.833Z,3.25
2022-09-25T16:43:36.697Z,2.80
2022-09-25T16:46:15.391Z,2.88
2022-09-25T16:48:44.736Z,3.13
2022-09-25T16:51:21.886Z,3.13
2022-09-25T16:53:51.504Z,2.53
2022-09-25T16:56:22.642Z,2.53
2022-09-25T16:58:50.990Z,2.88
2022-09-25T17:01:21.768Z,2.40
2022-09-25T17:03:55.723Z,2.78
2022-09-25T17:06:26.355Z,2.58
2022-09-25T17:08:55.378Z,3.25
2022-09-25T17:11:24.300Z,3.20
2022-09-25T17:13:53.196Z,3.20
2022-09-25T17:16:22.783Z,3.28
2022-09-25T17:18:51.354Z,3.08
2022-09-25T17:21:20.171Z,3.35
2022-09-25T17:23:48.864Z,3.38
2022-09-25T17:26:19.191Z,3.13
2022-09-25T17:28:47.680Z,3.53
2022-09-25T17:31:20.524Z,3.38
2022-09-25T17:33:50.983Z,3.45
2022-09-25T17:36:19.907Z,3.33
2022-09-25T17:38:48.388Z,3.08
2022-09-25T17:41:20.406Z,3.75
2022-09-25T17:43:49.396Z,3.53
2022-09-25T17:46:19.482Z,3.63
2022-09-25T17:48:54.177Z,3.47
2022-09-25T17:51:25.431Z,3.60
2022-09-25T17:53:53.941Z,3.50
2022-09-25T17:56:23.068Z,3.40
2022-09-25T17:58:51.228Z,3.33
2022-09-25T18:01:22.196Z,3.22
2022-09-25T18:03:53.063Z,3.40
2022-09-25T18:06:21.434Z,3.13
2022-09-25T18:08:51.085Z,3.17
2022-09-25T18:11:19.393Z,2.97
2022-09-25T18:13:48.105Z,2.88
2022-09-25T18:16:20.170Z,3.42
2022-09-25T18:19:06.480Z,3.88
2022-09-25T18:21:53.381Z,3.47
2022-09-25T18:24:21.979Z,3.63
2022-09-25T18:26:50.659Z,3.53
2022-09-25T18:29:20.022Z,3.60
2022-09-25T18:31:49.673Z,3.10
2022-09-25T18:34:18.217Z,2.72
2022-09-25T18:36:49.234Z,2.97
2022-09-25T18:39:20.351Z,2.60
2022-09-25T18:41:50.464Z,2.67
2022-09-25T18:44:20.253Z,2.58
2022-09-25T18:46:48.324Z,2.72
2022-09-25T18:49:17.116Z,2.47
2022-09-25T18:51:45.591Z,2.53
2022-09-25T18:54:16.447Z,2.40
2022-09-25T18:56:44.957Z,2.72
2022-09-25T18:59:13.234Z,2.83
2022-09-25T19:01:42.108Z,2.40
2022-09-25T19:04:17.051Z,1.90
2022-09-25T19:06:45.130Z,2.38
2022-09-25T19:09:17.150Z,2.65
2022-09-25T19:11:45.601Z,2.50
2022-09-25T19:14:14.931Z,2.30
2022-09-25T19:16:43.143Z,2.45
2022-09-25T19:19:11.297Z,2.22
2022-09-25T19:21:41.668Z,2.53
2022-09-25T19:24:09.919Z,2.70
2022-09-25T19:29:30.394Z,2.30
2022-09-25T19:31:58.483Z,2.58
2022-09-25T19:34:27.017Z,6.75
2022-09-25T19:36:56.261Z,3.80
2022-09-25T19:39:24.623Z,3.33
2022-09-25T19:41:54.535Z,3.83
2022-09-25T19:44:24.210Z,2.40
2022-09-25T19:46:52.600Z,2.65
2022-09-25T19:49:20.994Z,3.33
2022-09-25T19:51:49.683Z,2.92
2022-09-25T19:54:17.687Z,4.20
2022-09-25T19:56:46.207Z,3.95
2022-09-25T19:59:18.806Z,3.50
2022-09-25T20:01:47.404Z,3.03
2022-09-25T20:04:18.632Z,2.60
2022-09-25T20:06:48.021Z,3.00
2022-09-25T20:09:16.267Z,2.75
2022-09-25T20:11:46.199Z,2.97
2022-09-25T20:14:15.684Z,2.65
2022-09-25T20:16:44.185Z,2.95
2022-09-25T20:19:12.748Z,2.80
2022-09-25T20:21:41.503Z,2.90
2022-09-25T20:24:10.691Z,2.75
2022-09-25T20:26:39.658Z,2.92
2022-09-25T20:29:10.083Z,2.97
2022-09-25T20:31:40.857Z,3.30
2022-09-25T20:34:13.372Z,3.65
2022-09-25T20:36:41.523Z,3.05
2022-09-25T20:39:10.204Z,3.53
2022-09-25T20:41:38.800Z,3.55
2022-09-25T20:44:08.292Z,3.30
2022-09-25T20:46:36.957Z,3.95
2022-09-25T20:49:06.916Z,3.47
2022-09-25T20:51:36.813Z,3.50
2022-09-25T20:54:07.027Z,3.30
2022-09-25T20:56:36.819Z,3.90
2022-09-25T20:59:06.407Z,3.55
2022-09-25T21:01:37.121Z,3.75
2022-09-25T21:04:10.352Z,3.78
2022-09-25T21:06:41.633Z,3.75
2022-09-25T21:09:15.867Z,3.78
2022-09-25T21:11:44.354Z,4.18
2022-09-25T21:14:17.269Z,3.80
2022-09-25T21:16:45.788Z,4.13
2022-09-25T21:19:17.016Z,4.32
2022-09-25T21:21:45.906Z,4.47
2022-09-25T21:24:15.659Z,4.13
2022-09-25T21:26:44.635Z,4.60
2022-09-25T21:29:14.496Z,4.95
2022-09-25T21:31:48.972Z,4.60
2022-09-25T21:34:20.749Z,3.95
2022-09-25T21:36:49.381Z,4.32
2022-09-25T21:39:17.573Z,4.68
2022-09-25T21:41:45.633Z,4.30
2022-09-25T21:44:15.625Z,4.40
2022-09-25T21:46:44.761Z,4.50
2022-09-25T21:49:17.072Z,4.25
2022-09-25T21:51:47.899Z,4.75
2022-09-25T21:54:17.388Z,4.57
2022-09-25T21:56:46.209Z,4.72
2022-09-25T21:59:14.477Z,6.97
2022-09-25T22:01:43.316Z,5.10
2022-09-25T22:04:15.195Z,5.13
2022-09-25T22:06:45.430Z,4.90
2022-09-25T22:09:16.790Z,5.13
2022-09-25T22:11:46.621Z,5.32
2022-09-25T22:14:16.694Z,5.28
2022-09-25T22:16:46.869Z,5.25
2022-09-25T22:19:16.962Z,5.13
2022-09-25T22:21:46.802Z,5.85
2022-09-25T22:24:17.047Z,5.57
2022-09-25T22:26:47.737Z,5.82
2022-09-25T22:29:16.912Z,5.63
2022-09-25T22:31:45.925Z,4.65
2022-09-25T22:34:18.711Z,5.35
2022-09-25T22:36:47.384Z,4.85
2022-09-25T22:39:19.457Z,5.03
2022-09-25T22:41:52.393Z,4.82
2022-09-25T22:44:20.994Z,5.50
2022-09-25T22:46:49.184Z,5.07
2022-09-25T22:49:17.491Z,4.97
2022-09-25T22:51:46.115Z,4.82
2022-09-25T22:54:16.177Z,4.72
2022-09-25T22:56:45.432Z,4.95
2022-09-25T22:59:16.594Z,5.05
2022-09-25T23:01:46.769Z,4.75
2022-09-25T23:04:16.756Z,5.00
2022-09-25T23:06:45.128Z,4.45
2022-09-25T23:09:14.971Z,4.38
2022-09-25T23:11:46.206Z,4.50
2022-09-25T23:14:17.084Z,5.05
2022-09-25T23:16:46.365Z,4.13
2022-09-25T23:19:15.289Z,4.40
2022-09-25T23:21:44.513Z,4.78
2022-09-25T23:24:14.243Z,4.65
2022-09-25T23:26:43.217Z,4.50
2022-09-25T23:29:14.181Z,4.07
2022-09-25T23:31:42.804Z,4.57
2022-09-25T23:34:11.722Z,4.70
2022-09-25T23:36:40.372Z,4.80
2022-09-25T23:39:09.939Z,4.88
2022-09-25T23:41:39.355Z,4.80
2022-09-25T23:44:09.237Z,4.82
2022-09-25T23:46:41.177Z,5.07
2022-09-25T23:49:10.226Z,5.20
2022-09-25T23:51:38.979Z,4.97
2022-09-25T23:54:07.626Z,4.60
2022-09-25T23:56:37.082Z,4.93
2022-09-25T23:59:06.592Z,4.68
